sensor_id;sensor_type;location;lat;lon;timestamp;P1;durP1;ratioP1;P2;durP2;ratioP2
1122;SDS011;548;48.778;9.252;2022-12-16T00:01:04;48.97;;;37.90;;
1122;SDS011;548;48.778;9.252;2022-12-16T00:03:35;50.77;;;39.70;;
1122;SDS011;548;48.778;9.252;2022-12-16T00:06:04;44.67;;;37.70;;
1122;SDS011;548;48.778;9.252;2022-12-16T00:08:33;51.93;;;40.80;;
1122;SDS011;548;48.778;9.252;2022-12-16T00:11:01;48.03;;;38.97;;
1122;SDS011;548;48.778;9.252;2022-12-16T00:13:30;46.27;;;36.90;;
1122;SDS011;548;48.778;9.252;2022-12-16T00:15:58;45.40;;;37.17;;
1122;SDS011;548;48.778;9.252;2022-12-16T00:18:25;48.33;;;38.43;;
1122;SDS011;548;48.778;9.252;2022-12-16T00:20:52;50.20;;;39.93;;
1122;SDS011;548;48.778;9.252;2022-12-16T00:23:21;48.07;;;35.73;;
1122;SDS011;548;48.778;9.252;2022-12-16T00:25:48;47.90;;;37.33;;
1122;SDS011;548;48.778;9.252;2022-12-16T00:28:15;45.13;;;38.03;;
1122;SDS011;548;48.778;9.252;2022-12-16T00:30:46;47.00;;;36.10;;
1122;SDS011;548;48.778;9.252;2022-12-16T00:33:14;46.83;;;41.73;;
1122;SDS011;548;48.778;9.252;2022-12-16T00:35:41;52.27;;;41.57;;
1122;SDS011;548;48.778;9.252;2022-12-16T00:38:08;54.90;;;42.47;;
1122;SDS011;548;48.778;9.252;2022-12-16T00:40:36;52.00;;;41.03;;
1122;SDS011;548;48.778;9.252;2022-12-16T00:43:03;49.00;;;38.93;;
1122;SDS011;548;48.778;9.252;2022-12-16T00:45:30;45.53;;;39.60;;
1122;SDS011;548;48.778;9.252;2022-12-16T00:47:56;49.60;;;40.30;;
1122;SDS011;548;48.778;9.252;2022-12-16T00:50:23;46.20;;;40.60;;
1122;SDS011;548;48.778;9.252;2022-12-16T00:52:50;50.93;;;43.07;;
1122;SDS011;548;48.778;9.252;2022-12-16T00:55:17;47.33;;;41.70;;
1122;SDS011;548;48.778;9.252;2022-12-16T00:57:46;52.10;;;41.17;;
1122;SDS011;548;48.778;9.252;2022-12-16T01:00:13;51.03;;;42.30;;
1122;SDS011;548;48.778;9.252;2022-12-16T01:02:42;50.97;;;40.37;;
1122;SDS011;548;48.778;9.252;2022-12-16T01:05:11;49.03;;;40.97;;
1122;SDS011;548;48.778;9.252;2022-12-16T01:07:41;52.17;;;41.03;;
1122;SDS011;548;48.778;9.252;2022-12-16T01:10:08;46.07;;;40.40;;
1122;SDS011;548;48.778;9.252;2022-12-16T01:12:36;47.67;;;42.10;;
1122;SDS011;548;48.778;9.252;2022-12-16T01:15:05;57.90;;;45.33;;
1122;SDS011;548;48.778;9.252;2022-12-16T01:17:33;49.47;;;42.10;;
1122;SDS011;548;48.778;9.252;2022-12-16T01:20:00;50.67;;;42.07;;
1122;SDS011;548;48.778;9.252;2022-12-16T01:22:28;54.73;;;44.50;;
1122;SDS011;548;48.778;9.252;2022-12-16T01:24:56;52.77;;;41.90;;
1122;SDS011;548;48.778;9.252;2022-12-16T01:27:23;47.47;;;41.97;;
1122;SDS011;548;48.778;9.252;2022-12-16T01:29:50;64.17;;;47.53;;
1122;SDS011;548;48.778;9.252;2022-12-16T01:32:18;51.87;;;42.17;;
1122;SDS011;548;48.778;9.252;2022-12-16T01:34:48;53.00;;;42.30;;
1122;SDS011;548;48.778;9.252;2022-12-16T01:37:15;48.33;;;43.30;;
1122;SDS011;548;48.778;9.252;2022-12-16T01:39:42;52.17;;;42.57;;
1122;SDS011;548;48.778;9.252;2022-12-16T01:42:09;53.30;;;42.87;;
1122;SDS011;548;48.778;9.252;2022-12-16T01:44:38;52.50;;;42.60;;
1122;SDS011;548;48.778;9.252;2022-12-16T02:13:03;51.93;;;43.57;;
1122;SDS011;548;48.778;9.252;2022-12-16T02:15:36;53.80;;;41.80;;
1122;SDS011;548;48.778;9.252;2022-12-16T02:18:09;48.27;;;41.57;;
1122;SDS011;548;48.778;9.252;2022-12-16T02:23:42;51.80;;;46.17;;
1122;SDS011;548;48.778;9.252;2022-12-16T02:29:26;53.10;;;42.33;;
1122;SDS011;548;48.778;9.252;2022-12-16T02:32:11;52.53;;;43.13;;
1122;SDS011;548;48.778;9.252;2022-12-16T02:34:47;51.43;;;44.57;;
1122;SDS011;548;48.778;9.252;2022-12-16T02:37:22;51.83;;;41.83;;
1122;SDS011;548;48.778;9.252;2022-12-16T02:40:02;51.00;;;42.40;;
1122;SDS011;548;48.778;9.252;2022-12-16T02:42:33;47.80;;;41.00;;
1122;SDS011;548;48.778;9.252;2022-12-16T02:45:04;46.27;;;41.00;;
1122;SDS011;548;48.778;9.252;2022-12-16T02:47:37;55.60;;;41.33;;
1122;SDS011;548;48.778;9.252;2022-12-16T02:50:05;48.73;;;41.20;;
1122;SDS011;548;48.778;9.252;2022-12-16T02:52:42;44.17;;;39.53;;
1122;SDS011;548;48.778;9.252;2022-12-16T02:55:09;47.07;;;41.97;;
1122;SDS011;548;48.778;9.252;2022-12-16T03:00:37;49.50;;;43.13;;
1122;SDS011;548;48.778;9.252;2022-12-16T03:03:13;47.37;;;41.20;;
1122;SDS011;548;48.778;9.252;2022-12-16T03:05:45;56.73;;;42.60;;
1122;SDS011;548;48.778;9.252;2022-12-16T03:08:16;53.83;;;42.47;;
1122;SDS011;548;48.778;9.252;2022-12-16T03:10:46;55.50;;;41.90;;
1122;SDS011;548;48.778;9.252;2022-12-16T03:13:17;48.90;;;42.10;;
1122;SDS011;548;48.778;9.252;2022-12-16T03:15:45;55.20;;;44.90;;
1122;SDS011;548;48.778;9.252;2022-12-16T03:18:15;45.57;;;40.67;;
1122;SDS011;548;48.778;9.252;2022-12-16T03:20:44;51.00;;;44.50;;
1122;SDS011;548;48.778;9.252;2022-12-16T03:23:16;52.30;;;45.07;;
1122;SDS011;548;48.778;9.252;2022-12-16T03:25:47;48.73;;;42.77;;
1122;SDS011;548;48.778;9.252;2022-12-16T03:28:19;52.10;;;43.53;;
1122;SDS011;548;48.778;9.252;2022-12-16T03:30:55;49.07;;;42.70;;
1122;SDS011;548;48.778;9.252;2022-12-16T03:33:32;54.20;;;45.07;;
1122;SDS011;548;48.778;9.252;2022-12-16T03:36:05;46.20;;;38.57;;
1122;SDS011;548;48.778;9.252;2022-12-16T03:38:37;50.80;;;42.87;;
1122;SDS011;548;48.778;9.252;2022-12-16T03:41:06;49.10;;;42.07;;
1122;SDS011;548;48.778;9.252;2022-12-16T03:43:33;52.60;;;43.50;;
1122;SDS011;548;48.778;9.252;2022-12-16T03:46:01;53.90;;;45.90;;
1122;SDS011;548;48.778;9.252;2022-12-16T03:48:32;52.23;;;43.23;;
1122;SDS011;548;48.778;9.252;2022-12-16T03:50:59;55.30;;;44.90;;
1122;SDS011;548;48.778;9.252;2022-12-16T03:53:26;56.97;;;43.73;;
1122;SDS011;548;48.778;9.252;2022-12-16T03:55:53;50.07;;;44.73;;
1122;SDS011;548;48.778;9.252;2022-12-16T03:58:20;52.57;;;46.83;;
1122;SDS011;548;48.778;9.252;2022-12-16T04:00:47;56.23;;;45.33;;
1122;SDS011;548;48.778;9.252;2022-12-16T04:03:14;46.43;;;41.40;;
1122;SDS011;548;48.778;9.252;2022-12-16T04:05:44;48.10;;;41.00;;
1122;SDS011;548;48.778;9.252;2022-12-16T04:08:10;43.63;;;38.93;;
1122;SDS011;548;48.778;9.252;2022-12-16T04:10:37;45.83;;;41.17;;
1122;SDS011;548;48.778;9.252;2022-12-16T04:13:21;45.70;;;39.07;;
1122;SDS011;548;48.778;9.252;2022-12-16T04:16:06;47.90;;;42.87;;
1122;SDS011;548;48.778;9.252;2022-12-16T04:18:51;47.50;;;41.63;;
1122;SDS011;548;48.778;9.252;2022-12-16T04:21:37;45.53;;;40.73;;
1122;SDS011;548;48.778;9.252;2022-12-16T04:24:21;47.33;;;40.03;;
1122;SDS011;548;48.778;9.252;2022-12-16T04:26:52;41.90;;;37.40;;
1122;SDS011;548;48.778;9.252;2022-12-16T04:29:36;44.17;;;39.50;;
1122;SDS011;548;48.778;9.252;2022-12-16T04:32:23;41.77;;;37.00;;
1122;SDS011;548;48.778;9.252;2022-12-16T04:34:50;44.07;;;39.30;;
1122;SDS011;548;48.778;9.252;2022-12-16T04:37:17;41.93;;;37.77;;
1122;SDS011;548;48.778;9.252;2022-12-16T04:40:02;43.77;;;39.30;;
1122;SDS011;548;48.778;9.252;2022-12-16T04:42:47;41.30;;;37.07;;
1122;SDS011;548;48.778;9.252;2022-12-16T04:45:45;40.20;;;35.57;;
1122;SDS011;548;48.778;9.252;2022-12-16T04:48:29;39.63;;;35.33;;
1122;SDS011;548;48.778;9.252;2022-12-16T04:51:14;39.70;;;35.80;;
1122;SDS011;548;48.778;9.252;2022-12-16T04:54:00;42.67;;;36.70;;
1122;SDS011;548;48.778;9.252;2022-12-16T04:56:44;43.07;;;36.07;;
1122;SDS011;548;48.778;9.252;2022-12-16T04:59:28;40.37;;;36.27;;
1122;SDS011;548;48.778;9.252;2022-12-16T05:02:12;39.90;;;35.47;;
1122;SDS011;548;48.778;9.252;2022-12-16T05:04:56;39.43;;;35.30;;
1122;SDS011;548;48.778;9.252;2022-12-16T05:07:40;39.97;;;35.60;;
1122;SDS011;548;48.778;9.252;2022-12-16T05:10:25;39.60;;;35.40;;
1122;SDS011;548;48.778;9.252;2022-12-16T05:13:09;39.03;;;34.33;;
1122;SDS011;548;48.778;9.252;2022-12-16T05:15:53;40.20;;;35.87;;
1122;SDS011;548;48.778;9.252;2022-12-16T05:18:37;39.77;;;35.57;;
1122;SDS011;548;48.778;9.252;2022-12-16T05:21:21;47.10;;;35.17;;
1122;SDS011;548;48.778;9.252;2022-12-16T05:24:05;43.07;;;37.57;;
1122;SDS011;548;48.778;9.252;2022-12-16T05:27:02;38.60;;;34.60;;
1122;SDS011;548;48.778;9.252;2022-12-16T05:29:47;41.77;;;34.27;;
1122;SDS011;548;48.778;9.252;2022-12-16T05:32:31;39.90;;;35.90;;
1122;SDS011;548;48.778;9.252;2022-12-16T05:35:15;39.03;;;35.03;;
1122;SDS011;548;48.778;9.252;2022-12-16T05:37:59;38.90;;;34.90;;
1122;SDS011;548;48.778;9.252;2022-12-16T05:40:43;39.00;;;35.13;;
1122;SDS011;548;48.778;9.252;2022-12-16T05:43:28;42.60;;;38.37;;
1122;SDS011;548;48.778;9.252;2022-12-16T05:46:12;46.83;;;34.80;;
1122;SDS011;548;48.778;9.252;2022-12-16T05:48:56;38.80;;;34.87;;
1122;SDS011;548;48.778;9.252;2022-12-16T05:51:41;38.70;;;35.00;;
1122;SDS011;548;48.778;9.252;2022-12-16T05:54:25;39.47;;;35.50;;
1122;SDS011;548;48.778;9.252;2022-12-16T05:57:09;39.50;;;35.47;;
1122;SDS011;548;48.778;9.252;2022-12-16T05:59:54;40.00;;;35.90;;
1122;SDS011;548;48.778;9.252;2022-12-16T06:02:38;39.90;;;36.03;;
1122;SDS011;548;48.778;9.252;2022-12-16T06:05:22;39.43;;;35.07;;
1122;SDS011;548;48.778;9.252;2022-12-16T06:08:06;37.37;;;33.47;;
1122;SDS011;548;48.778;9.252;2022-12-16T06:11:02;41.33;;;36.47;;
1122;SDS011;548;48.778;9.252;2022-12-16T06:13:48;38.47;;;34.60;;
1122;SDS011;548;48.778;9.252;2022-12-16T06:16:34;40.27;;;35.50;;
1122;SDS011;548;48.778;9.252;2022-12-16T06:19:18;38.33;;;34.23;;
1122;SDS011;548;48.778;9.252;2022-12-16T06:22:02;42.73;;;34.77;;
1122;SDS011;548;48.778;9.252;2022-12-16T06:24:46;38.17;;;34.37;;
1122;SDS011;548;48.778;9.252;2022-12-16T06:27:30;35.87;;;32.57;;
1122;SDS011;548;48.778;9.252;2022-12-16T06:30:15;39.07;;;35.40;;
1122;SDS011;548;48.778;9.252;2022-12-16T06:33:01;34.50;;;31.23;;
1122;SDS011;548;48.778;9.252;2022-12-16T06:35:45;38.30;;;34.43;;
1122;SDS011;548;48.778;9.252;2022-12-16T06:38:29;35.60;;;31.63;;
1122;SDS011;548;48.778;9.252;2022-12-16T06:41:13;40.23;;;32.90;;
1122;SDS011;548;48.778;9.252;2022-12-16T06:43:57;36.30;;;32.60;;
1122;SDS011;548;48.778;9.252;2022-12-16T06:46:41;33.83;;;30.70;;
1122;SDS011;548;48.778;9.252;2022-12-16T06:49:26;35.83;;;31.93;;
1122;SDS011;548;48.778;9.252;2022-12-16T06:52:10;35.23;;;31.50;;
1122;SDS011;548;48.778;9.252;2022-12-16T06:54:54;34.67;;;30.70;;
1122;SDS011;548;48.778;9.252;2022-12-16T06:57:38;36.00;;;32.00;;
1122;SDS011;548;48.778;9.252;2022-12-16T07:00:22;44.40;;;34.47;;
1122;SDS011;548;48.778;9.252;2022-12-16T07:03:06;35.67;;;32.13;;
1122;SDS011;548;48.778;9.252;2022-12-16T07:06:00;37.73;;;33.50;;
1122;SDS011;548;48.778;9.252;2022-12-16T07:08:44;34.90;;;31.70;;
1122;SDS011;548;48.778;9.252;2022-12-16T07:11:28;33.17;;;30.13;;
1122;SDS011;548;48.778;9.252;2022-12-16T07:14:12;34.07;;;30.37;;
1122;SDS011;548;48.778;9.252;2022-12-16T07:16:57;34.70;;;30.70;;
1122;SDS011;548;48.778;9.252;2022-12-16T07:19:37;31.63;;;28.53;;
1122;SDS011;548;48.778;9.252;2022-12-16T07:22:23;34.87;;;31.80;;
1122;SDS011;548;48.778;9.252;2022-12-16T07:25:07;31.97;;;28.83;;
1122;SDS011;548;48.778;9.252;2022-12-16T07:27:51;34.23;;;30.80;;
1122;SDS011;548;48.778;9.252;2022-12-16T07:30:35;34.03;;;30.63;;
1122;SDS011;548;48.778;9.252;2022-12-16T07:33:19;29.37;;;26.40;;
1122;SDS011;548;48.778;9.252;2022-12-16T07:36:03;32.10;;;28.97;;
1122;SDS011;548;48.778;9.252;2022-12-16T07:38:49;32.43;;;29.07;;
1122;SDS011;548;48.778;9.252;2022-12-16T07:41:33;33.93;;;30.33;;
1122;SDS011;548;48.778;9.252;2022-12-16T07:44:17;32.80;;;29.87;;
1122;SDS011;548;48.778;9.252;2022-12-16T07:47:01;30.30;;;27.57;;
1122;SDS011;548;48.778;9.252;2022-12-16T07:49:45;33.07;;;29.70;;
1122;SDS011;548;48.778;9.252;2022-12-16T07:52:30;33.40;;;29.00;;
1122;SDS011;548;48.778;9.252;2022-12-16T07:55:15;31.57;;;28.37;;
1122;SDS011;548;48.778;9.252;2022-12-16T07:57:59;32.60;;;29.60;;
1122;SDS011;548;48.778;9.252;2022-12-16T08:00:43;33.40;;;29.90;;
1122;SDS011;548;48.778;9.252;2022-12-16T08:03:27;28.80;;;26.30;;
1122;SDS011;548;48.778;9.252;2022-12-16T08:06:12;31.23;;;28.03;;
1122;SDS011;548;48.778;9.252;2022-12-16T08:08:56;30.03;;;27.33;;
1122;SDS011;548;48.778;9.252;2022-12-16T08:11:41;29.60;;;26.90;;
1122;SDS011;548;48.778;9.252;2022-12-16T08:14:25;27.83;;;25.27;;
1122;SDS011;548;48.778;9.252;2022-12-16T08:17:09;28.73;;;26.17;;
1122;SDS011;548;48.778;9.252;2022-12-16T08:19:53;30.00;;;27.00;;
1122;SDS011;548;48.778;9.252;2022-12-16T08:22:38;29.60;;;26.70;;
1122;SDS011;548;48.778;9.252;2022-12-16T08:25:23;27.57;;;24.63;;
1122;SDS011;548;48.778;9.252;2022-12-16T08:28:08;29.80;;;25.30;;
1122;SDS011;548;48.778;9.252;2022-12-16T08:30:52;25.73;;;23.10;;
1122;SDS011;548;48.778;9.252;2022-12-16T08:33:36;28.67;;;25.90;;
1122;SDS011;548;48.778;9.252;2022-12-16T08:36:20;24.93;;;22.73;;
1122;SDS011;548;48.778;9.252;2022-12-16T08:39:04;27.40;;;24.90;;
1122;SDS011;548;48.778;9.252;2022-12-16T08:41:48;26.13;;;23.87;;
1122;SDS011;548;48.778;9.252;2022-12-16T08:44:34;25.03;;;22.73;;
1122;SDS011;548;48.778;9.252;2022-12-16T08:47:18;25.07;;;22.73;;
1122;SDS011;548;48.778;9.252;2022-12-16T08:50:02;26.00;;;23.43;;
1122;SDS011;548;48.778;9.252;2022-12-16T08:52:47;23.17;;;21.03;;
1122;SDS011;548;48.778;9.252;2022-12-16T08:55:31;24.10;;;22.10;;
1122;SDS011;548;48.778;9.252;2022-12-16T08:58:15;24.23;;;22.00;;
1122;SDS011;548;48.778;9.252;2022-12-16T09:01:09;24.90;;;22.80;;
1122;SDS011;548;48.778;9.252;2022-12-16T09:04:08;24.83;;;22.27;;
1122;SDS011;548;48.778;9.252;2022-12-16T09:06:53;22.50;;;20.67;;
1122;SDS011;548;48.778;9.252;2022-12-16T09:09:37;23.00;;;20.97;;
1122;SDS011;548;48.778;9.252;2022-12-16T09:12:22;24.13;;;21.77;;
1122;SDS011;548;48.778;9.252;2022-12-16T09:15:06;23.87;;;21.90;;
1122;SDS011;548;48.778;9.252;2022-12-16T09:17:53;24.67;;;22.27;;
1122;SDS011;548;48.778;9.252;2022-12-16T09:20:38;24.83;;;22.47;;
1122;SDS011;548;48.778;9.252;2022-12-16T09:23:22;23.90;;;21.33;;
1122;SDS011;548;48.778;9.252;2022-12-16T09:26:06;23.13;;;21.33;;
1122;SDS011;548;48.778;9.252;2022-12-16T09:28:50;23.50;;;21.17;;
1122;SDS011;548;48.778;9.252;2022-12-16T09:31:34;22.97;;;20.80;;
1122;SDS011;548;48.778;9.252;2022-12-16T09:34:20;21.93;;;20.07;;
1122;SDS011;548;48.778;9.252;2022-12-16T09:37:05;22.77;;;20.87;;
1122;SDS011;548;48.778;9.252;2022-12-16T09:39:57;23.33;;;21.33;;
1122;SDS011;548;48.778;9.252;2022-12-16T09:42:44;22.57;;;20.53;;
1122;SDS011;548;48.778;9.252;2022-12-16T09:45:35;24.17;;;21.97;;
1122;SDS011;548;48.778;9.252;2022-12-16T09:48:27;24.93;;;22.83;;
1122;SDS011;548;48.778;9.252;2022-12-16T09:51:18;22.37;;;20.37;;
1122;SDS011;548;48.778;9.252;2022-12-16T09:54:04;23.93;;;21.40;;
1122;SDS011;548;48.778;9.252;2022-12-16T09:56:52;22.37;;;20.30;;
1122;SDS011;548;48.778;9.252;2022-12-16T09:59:37;20.73;;;18.93;;
1122;SDS011;548;48.778;9.252;2022-12-16T10:02:23;24.80;;;22.50;;
1122;SDS011;548;48.778;9.252;2022-12-16T10:05:11;23.43;;;21.17;;
1122;SDS011;548;48.778;9.252;2022-12-16T10:07:59;23.27;;;21.17;;
1122;SDS011;548;48.778;9.252;2022-12-16T10:11:05;21.37;;;19.87;;
1122;SDS011;548;48.778;9.252;2022-12-16T10:13:56;22.60;;;20.47;;
1122;SDS011;548;48.778;9.252;2022-12-16T10:16:46;21.50;;;19.40;;
1122;SDS011;548;48.778;9.252;2022-12-16T10:19:42;19.97;;;18.20;;
1122;SDS011;548;48.778;9.252;2022-12-16T10:22:36;21.20;;;19.40;;
1122;SDS011;548;48.778;9.252;2022-12-16T10:25:29;22.07;;;19.90;;
1122;SDS011;548;48.778;9.252;2022-12-16T10:28:17;20.07;;;18.40;;
1122;SDS011;548;48.778;9.252;2022-12-16T10:31:11;19.97;;;18.20;;
1122;SDS011;548;48.778;9.252;2022-12-16T10:33:57;21.33;;;19.33;;
1122;SDS011;548;48.778;9.252;2022-12-16T10:36:42;31.83;;;19.00;;
1122;SDS011;548;48.778;9.252;2022-12-16T10:39:30;19.40;;;17.70;;
1122;SDS011;548;48.778;9.252;2022-12-16T10:42:19;20.77;;;18.90;;
1122;SDS011;548;48.778;9.252;2022-12-16T10:45:12;18.40;;;16.77;;
1122;SDS011;548;48.778;9.252;2022-12-16T10:48:01;17.80;;;16.30;;
1122;SDS011;548;48.778;9.252;2022-12-16T10:50:47;18.10;;;16.37;;
1122;SDS011;548;48.778;9.252;2022-12-16T10:53:33;17.83;;;16.23;;
1122;SDS011;548;48.778;9.252;2022-12-16T10:56:23;18.20;;;16.50;;
1122;SDS011;548;48.778;9.252;2022-12-16T10:59:33;21.67;;;17.60;;
1122;SDS011;548;48.778;9.252;2022-12-16T11:02:20;18.63;;;16.70;;
1122;SDS011;548;48.778;9.252;2022-12-16T11:05:21;18.17;;;16.57;;
1122;SDS011;548;48.778;9.252;2022-12-16T11:08:21;19.17;;;17.30;;
1122;SDS011;548;48.778;9.252;2022-12-16T11:11:11;18.43;;;16.77;;
1122;SDS011;548;48.778;9.252;2022-12-16T11:14:07;19.03;;;17.20;;
1122;SDS011;548;48.778;9.252;2022-12-16T11:17:12;19.07;;;17.20;;
1122;SDS011;548;48.778;9.252;2022-12-16T11:20:06;17.23;;;15.83;;
1122;SDS011;548;48.778;9.252;2022-12-16T11:23:08;17.80;;;16.10;;
1122;SDS011;548;48.778;9.252;2022-12-16T11:26:03;19.03;;;16.90;;
1122;SDS011;548;48.778;9.252;2022-12-16T11:29:02;18.40;;;16.67;;
1122;SDS011;548;48.778;9.252;2022-12-16T11:31:49;18.87;;;17.07;;
1122;SDS011;548;48.778;9.252;2022-12-16T11:34:41;20.13;;;17.60;;
1122;SDS011;548;48.778;9.252;2022-12-16T11:37:29;16.90;;;15.40;;
1122;SDS011;548;48.778;9.252;2022-12-16T11:40:16;19.20;;;17.30;;
1122;SDS011;548;48.778;9.252;2022-12-16T11:43:07;16.70;;;15.30;;
1122;SDS011;548;48.778;9.252;2022-12-16T11:45:56;18.00;;;16.43;;
1122;SDS011;548;48.778;9.252;2022-12-16T11:48:43;21.83;;;16.93;;
1122;SDS011;548;48.778;9.252;2022-12-16T11:51:33;17.37;;;15.80;;
1122;SDS011;548;48.778;9.252;2022-12-16T11:54:21;21.10;;;19.10;;
1122;SDS011;548;48.778;9.252;2022-12-16T12:00:01;19.60;;;18.10;;
1122;SDS011;548;48.778;9.252;2022-12-16T12:02:51;21.70;;;19.90;;
1122;SDS011;548;48.778;9.252;2022-12-16T12:05:40;19.90;;;18.23;;
1122;SDS011;548;48.778;9.252;2022-12-16T12:08:31;22.53;;;20.50;;
1122;SDS011;548;48.778;9.252;2022-12-16T12:11:22;22.13;;;20.23;;
1122;SDS011;548;48.778;9.252;2022-12-16T12:14:12;20.40;;;18.80;;
1122;SDS011;548;48.778;9.252;2022-12-16T12:17:11;21.60;;;19.80;;
1122;SDS011;548;48.778;9.252;2022-12-16T12:20:16;24.20;;;22.07;;
1122;SDS011;548;48.778;9.252;2022-12-16T12:23:14;22.90;;;21.20;;
1122;SDS011;548;48.778;9.252;2022-12-16T12:26:08;22.87;;;21.33;;
1122;SDS011;548;48.778;9.252;2022-12-16T12:28:57;21.47;;;19.97;;
1122;SDS011;548;48.778;9.252;2022-12-16T12:31:48;23.70;;;21.93;;
1122;SDS011;548;48.778;9.252;2022-12-16T12:34:41;23.67;;;21.87;;
1122;SDS011;548;48.778;9.252;2022-12-16T12:37:33;24.03;;;21.93;;
1122;SDS011;548;48.778;9.252;2022-12-16T12:40:25;22.73;;;21.13;;
1122;SDS011;548;48.778;9.252;2022-12-16T12:43:23;20.80;;;19.20;;
1122;SDS011;548;48.778;9.252;2022-12-16T12:46:19;22.93;;;21.20;;
1122;SDS011;548;48.778;9.252;2022-12-16T12:49:13;20.20;;;18.80;;
1122;SDS011;548;48.778;9.252;2022-12-16T12:52:06;22.57;;;20.60;;
1122;SDS011;548;48.778;9.252;2022-12-16T12:55:03;20.17;;;18.67;;
1122;SDS011;548;48.778;9.252;2022-12-16T12:57:53;20.13;;;18.57;;
1122;SDS011;548;48.778;9.252;2022-12-16T13:00:41;17.27;;;15.97;;
1122;SDS011;548;48.778;9.252;2022-12-16T13:03:30;17.23;;;15.97;;
1122;SDS011;548;48.778;9.252;2022-12-16T13:06:19;20.23;;;18.47;;
1122;SDS011;548;48.778;9.252;2022-12-16T13:12:19;17.50;;;16.13;;
1122;SDS011;548;48.778;9.252;2022-12-16T13:15:10;18.50;;;16.77;;
1122;SDS011;548;48.778;9.252;2022-12-16T13:24:33;17.07;;;15.57;;
1122;SDS011;548;48.778;9.252;2022-12-16T13:27:20;17.90;;;16.20;;
1122;SDS011;548;48.778;9.252;2022-12-16T13:30:17;18.07;;;16.37;;
1122;SDS011;548;48.778;9.252;2022-12-16T13:33:05;17.47;;;16.07;;
1122;SDS011;548;48.778;9.252;2022-12-16T13:36:11;16.83;;;15.43;;
1122;SDS011;548;48.778;9.252;2022-12-16T13:38:58;17.13;;;15.63;;
1122;SDS011;548;48.778;9.252;2022-12-16T13:41:57;16.53;;;14.87;;
1122;SDS011;548;48.778;9.252;2022-12-16T13:44:56;17.43;;;16.03;;
1122;SDS011;548;48.778;9.252;2022-12-16T13:48:01;17.37;;;15.90;;
1122;SDS011;548;48.778;9.252;2022-12-16T13:51:07;19.87;;;17.90;;
1122;SDS011;548;48.778;9.252;2022-12-16T13:53:52;20.67;;;18.67;;
1122;SDS011;548;48.778;9.252;2022-12-16T13:56:38;15.77;;;14.43;;
1122;SDS011;548;48.778;9.252;2022-12-16T13:59:27;18.43;;;16.57;;
1122;SDS011;548;48.778;9.252;2022-12-16T14:02:18;17.97;;;16.20;;
1122;SDS011;548;48.778;9.252;2022-12-16T14:05:13;16.57;;;15.07;;
1122;SDS011;548;48.778;9.252;2022-12-16T14:08:00;18.47;;;16.77;;
1122;SDS011;548;48.778;9.252;2022-12-16T14:10:50;16.90;;;15.10;;
1122;SDS011;548;48.778;9.252;2022-12-16T14:13:41;17.80;;;16.30;;
1122;SDS011;548;48.778;9.252;2022-12-16T14:16:32;16.60;;;15.00;;
1122;SDS011;548;48.778;9.252;2022-12-16T14:19:26;16.53;;;14.90;;
1122;SDS011;548;48.778;9.252;2022-12-16T14:22:22;15.10;;;13.70;;
1122;SDS011;548;48.778;9.252;2022-12-16T14:25:14;15.73;;;14.27;;
1122;SDS011;548;48.778;9.252;2022-12-16T14:28:02;16.60;;;15.20;;
1122;SDS011;548;48.778;9.252;2022-12-16T14:31:00;14.70;;;13.40;;
1122;SDS011;548;48.778;9.252;2022-12-16T14:33:50;17.70;;;14.67;;
1122;SDS011;548;48.778;9.252;2022-12-16T14:36:36;15.90;;;14.30;;
1122;SDS011;548;48.778;9.252;2022-12-16T14:39:22;15.27;;;14.07;;
1122;SDS011;548;48.778;9.252;2022-12-16T14:42:14;15.43;;;13.93;;
1122;SDS011;548;48.778;9.252;2022-12-16T14:45:03;16.37;;;14.70;;
1122;SDS011;548;48.778;9.252;2022-12-16T14:48:08;15.37;;;13.93;;
1122;SDS011;548;48.778;9.252;2022-12-16T14:54:18;18.20;;;16.70;;
1122;SDS011;548;48.778;9.252;2022-12-16T14:57:04;19.90;;;15.57;;
1122;SDS011;548;48.778;9.252;2022-12-16T15:00:03;17.23;;;15.83;;
1122;SDS011;548;48.778;9.252;2022-12-16T15:02:56;15.93;;;14.53;;
1122;SDS011;548;48.778;9.252;2022-12-16T15:05:44;16.83;;;15.20;;
1122;SDS011;548;48.778;9.252;2022-12-16T15:08:31;15.40;;;14.00;;
1122;SDS011;548;48.778;9.252;2022-12-16T15:11:19;18.07;;;16.27;;
1122;SDS011;548;48.778;9.252;2022-12-16T15:14:06;15.30;;;14.07;;
1122;SDS011;548;48.778;9.252;2022-12-16T15:16:56;16.90;;;15.47;;
1122;SDS011;548;48.778;9.252;2022-12-16T15:19:42;16.30;;;14.80;;
1122;SDS011;548;48.778;9.252;2022-12-16T15:22:29;19.17;;;15.33;;
1122;SDS011;548;48.778;9.252;2022-12-16T15:25:20;16.83;;;14.70;;
1122;SDS011;548;48.778;9.252;2022-12-16T15:28:20;18.03;;;15.83;;
1122;SDS011;548;48.778;9.252;2022-12-16T15:31:23;17.90;;;16.50;;
1122;SDS011;548;48.778;9.252;2022-12-16T15:37:14;16.27;;;14.80;;
1122;SDS011;548;48.778;9.252;2022-12-16T15:40:00;17.43;;;16.03;;
1122;SDS011;548;48.778;9.252;2022-12-16T15:42:48;17.17;;;15.60;;
1122;SDS011;548;48.778;9.252;2022-12-16T15:45:33;16.00;;;14.50;;
1122;SDS011;548;48.778;9.252;2022-12-16T15:48:19;16.23;;;14.93;;
1122;SDS011;548;48.778;9.252;2022-12-16T15:51:19;16.50;;;15.00;;
1122;SDS011;548;48.778;9.252;2022-12-16T15:54:20;16.93;;;14.90;;
1122;SDS011;548;48.778;9.252;2022-12-16T16:00:16;17.13;;;15.63;;
1122;SDS011;548;48.778;9.252;2022-12-16T16:03:03;16.00;;;14.43;;
1122;SDS011;548;48.778;9.252;2022-12-16T16:05:57;16.53;;;15.03;;
1122;SDS011;548;48.778;9.252;2022-12-16T16:08:51;19.17;;;17.23;;
1122;SDS011;548;48.778;9.252;2022-12-16T16:11:50;15.70;;;14.47;;
1122;SDS011;548;48.778;9.252;2022-12-16T16:14:34;16.67;;;14.63;;
1122;SDS011;548;48.778;9.252;2022-12-16T16:17:19;16.97;;;15.37;;
1122;SDS011;548;48.778;9.252;2022-12-16T16:20:05;17.70;;;15.90;;
1122;SDS011;548;48.778;9.252;2022-12-16T16:22:56;16.20;;;14.60;;
1122;SDS011;548;48.778;9.252;2022-12-16T16:25:42;17.97;;;16.20;;
1122;SDS011;548;48.778;9.252;2022-12-16T16:28:26;21.93;;;16.63;;
1122;SDS011;548;48.778;9.252;2022-12-16T16:31:11;17.67;;;16.17;;
1122;SDS011;548;48.778;9.252;2022-12-16T16:33:55;19.23;;;17.33;;
1122;SDS011;548;48.778;9.252;2022-12-16T16:36:51;17.77;;;16.03;;
1122;SDS011;548;48.778;9.252;2022-12-16T16:39:37;17.50;;;15.70;;
1122;SDS011;548;48.778;9.252;2022-12-16T16:42:23;16.73;;;15.10;;
1122;SDS011;548;48.778;9.252;2022-12-16T16:45:08;16.83;;;15.13;;
1122;SDS011;548;48.778;9.252;2022-12-16T16:47:52;17.53;;;15.73;;
1122;SDS011;548;48.778;9.252;2022-12-16T16:50:44;17.90;;;16.33;;
1122;SDS011;548;48.778;9.252;2022-12-16T16:53:28;19.57;;;17.60;;
1122;SDS011;548;48.778;9.252;2022-12-16T16:56:13;21.27;;;17.97;;
1122;SDS011;548;48.778;9.252;2022-12-16T16:58:58;20.97;;;18.80;;
1122;SDS011;548;48.778;9.252;2022-12-16T17:01:42;20.23;;;18.30;;
1122;SDS011;548;48.778;9.252;2022-12-16T17:04:26;20.77;;;18.00;;
1122;SDS011;548;48.778;9.252;2022-12-16T17:07:10;21.07;;;18.60;;
1122;SDS011;548;48.778;9.252;2022-12-16T17:09:54;19.03;;;17.07;;
1122;SDS011;548;48.778;9.252;2022-12-16T17:12:38;19.43;;;17.43;;
1122;SDS011;548;48.778;9.252;2022-12-16T17:15:28;21.33;;;19.10;;
1122;SDS011;548;48.778;9.252;2022-12-16T17:18:14;21.63;;;19.43;;
1122;SDS011;548;48.778;9.252;2022-12-16T17:20:58;19.83;;;17.87;;
1122;SDS011;548;48.778;9.252;2022-12-16T17:23:43;19.87;;;18.00;;
1122;SDS011;548;48.778;9.252;2022-12-16T17:26:27;20.07;;;18.07;;
1122;SDS011;548;48.778;9.252;2022-12-16T17:29:14;21.33;;;19.00;;
1122;SDS011;548;48.778;9.252;2022-12-16T17:32:02;20.73;;;18.73;;
1122;SDS011;548;48.778;9.252;2022-12-16T17:34:47;22.17;;;20.17;;
1122;SDS011;548;48.778;9.252;2022-12-16T17:37:31;20.87;;;18.83;;